createdAt,value
2022-11-24T00:04:32.783Z,6.43
2022-11-24T00:09:34.995Z,7.10
2022-11-24T00:14:37.027Z,6.70
2022-11-24T00:19:39.054Z,6.97
2022-11-24T00:24:41.102Z,6.40
2022-11-24T00:29:43.240Z,7.47
2022-11-24T00:34:45.550Z,7.13
2022-11-24T00:39:47.590Z,7.15
2022-11-24T00:44:49.688Z,7.03
2022-11-24T00:49:51.784Z,7.38
2022-11-24T00:54:53.821Z,7.05
2022-11-24T00:59:55.786Z,6.40
2022-11-24T01:04:57.776Z,6.20
2022-11-24T01:09:59.841Z,5.80
2022-11-24T01:15:02.195Z,5.03
2022-11-24T01:20:05.427Z,5.57
2022-11-24T01:25:09.232Z,6.30
2022-11-24T01:30:11.512Z,6.63
2022-11-24T01:35:13.579Z,7.13
2022-11-24T01:40:15.908Z,7.50
2022-11-24T01:45:23.907Z,6.93
2022-11-24T01:50:26.109Z,7.43
2022-11-24T01:55:34.669Z,7.18
2022-11-24T02:00:39.218Z,7.78
2022-11-24T02:05:51.049Z,7.35
2022-11-24T02:10:54.941Z,6.75
2022-11-24T02:15:57.009Z,7.32
2022-11-24T02:21:01.532Z,7.65
2022-11-24T02:26:18.524Z,7.95
2022-11-24T02:31:20.666Z,7.53
2022-11-24T02:36:22.702Z,6.80
2022-11-24T02:41:26.976Z,6.93
2022-11-24T02:46:30.097Z,6.65
2022-11-24T02:51:34.502Z,5.63
2022-11-24T02:56:36.609Z,6.32
2022-11-24T03:01:38.685Z,6.47
2022-11-24T03:06:40.883Z,5.93
2022-11-24T03:11:43.094Z,5.95
2022-11-24T03:16:45.144Z,6.75
2022-11-24T03:21:47.232Z,6.07
2022-11-24T03:26:49.301Z,6.43
2022-11-24T03:31:51.387Z,5.57
2022-11-24T03:36:53.349Z,5.55
2022-11-24T03:41:55.476Z,6.15
2022-11-24T03:46:57.752Z,6.78
2022-11-24T03:52:02.657Z,6.55
2022-11-24T03:57:08.790Z,6.63
2022-11-24T04:02:10.931Z,7.35
2022-11-24T04:07:12.956Z,6.50
2022-11-24T04:12:33.657Z,6.30
2022-11-24T04:17:35.770Z,5.93
2022-11-24T04:22:38.242Z,6.45
2022-11-24T04:27:40.434Z,5.65
2022-11-24T04:32:42.522Z,5.85
2022-11-24T04:37:44.645Z,5.97
2022-11-24T04:42:55.081Z,6.22
2022-11-24T04:47:57.085Z,5.45
2022-11-24T04:52:59.167Z,5.82
2022-11-24T04:58:02.281Z,5.07
2022-11-24T05:03:05.021Z,6.03
2022-11-24T05:08:07.035Z,6.00
2022-11-24T05:13:13.664Z,6.05
2022-11-24T05:18:16.871Z,5.78
2022-11-24T05:23:18.935Z,4.97
2022-11-24T05:28:21.073Z,5.90
2022-11-24T05:33:23.200Z,5.97
2022-11-24T05:38:25.223Z,6.88
2022-11-24T05:43:27.413Z,6.80
2022-11-24T05:48:29.609Z,6.55
2022-11-24T05:53:31.705Z,7.20
2022-11-24T05:58:33.712Z,6.53
2022-11-24T06:03:35.856Z,6.03
2022-11-24T06:08:38.002Z,6.05
2022-11-24T06:13:41.834Z,6.25
2022-11-24T06:18:44.134Z,6.38
2022-11-24T06:23:49.397Z,6.65
2022-11-24T06:28:51.382Z,6.53
2022-11-24T06:33:53.834Z,5.68
2022-11-24T06:38:55.902Z,6.10
2022-11-24T06:43:58.181Z,5.80
2022-11-24T06:49:00.731Z,6.35
2022-11-24T06:54:06.757Z,5.82
2022-11-24T06:59:17.609Z,6.53
2022-11-24T07:04:19.966Z,5.85
2022-11-24T07:09:21.980Z,10.57
2022-11-24T07:14:25.977Z,6.90
2022-11-24T07:19:28.683Z,5.65
2022-11-24T07:24:30.774Z,6.10
2022-11-24T07:29:32.785Z,5.47
2022-11-24T07:34:35.025Z,6.05
2022-11-24T07:39:37.294Z,5.43
2022-11-24T07:44:40.729Z,6.00
2022-11-24T07:49:42.733Z,5.47
2022-11-24T07:54:44.744Z,7.97
2022-11-24T07:59:46.765Z,6.45
2022-11-24T08:04:48.833Z,7.85
2022-11-24T08:09:52.256Z,7.55
2022-11-24T08:14:54.350Z,8.43
2022-11-24T08:19:56.410Z,7.97
2022-11-24T08:24:58.418Z,8.25
2022-11-24T08:30:00.390Z,10.45
2022-11-24T08:35:13.923Z,8.20
2022-11-24T08:40:17.023Z,8.48
2022-11-24T08:45:21.458Z,7.88
2022-11-24T08:50:25.690Z,8.55
2022-11-24T08:55:27.800Z,7.68
2022-11-24T09:00:29.873Z,7.35
2022-11-24T09:10:54.824Z,6.45
2022-11-24T09:15:56.869Z,5.97
2022-11-24T09:21:08.445Z,7.05
2022-11-24T09:26:19.576Z,7.80
2022-11-24T09:31:24.150Z,7.60
2022-11-24T09:36:26.502Z,7.43
2022-11-24T09:41:40.662Z,10.13
2022-11-24T09:47:16.476Z,10.05
2022-11-24T09:52:47.398Z,9.23
2022-11-24T09:57:59.112Z,10.38
2022-11-24T10:08:39.389Z,9.00
2022-11-24T10:14:03.115Z,8.98
2022-11-24T10:19:17.648Z,8.68
2022-11-24T10:24:28.565Z,8.30
2022-11-24T10:29:39.933Z,9.10
2022-11-24T10:34:45.405Z,9.27
2022-11-24T10:40:00.819Z,8.85
2022-11-24T10:45:15.130Z,10.20
2022-11-24T10:50:19.788Z,11.38
2022-11-24T10:55:21.872Z,11.23
2022-11-24T11:00:23.845Z,10.48
2022-11-24T11:05:42.427Z,9.73
2022-11-24T11:10:45.676Z,10.25
2022-11-24T11:15:47.978Z,10.20
2022-11-24T11:20:58.497Z,10.80
2022-11-24T11:26:25.263Z,11.57
2022-11-24T11:31:28.417Z,10.88
2022-11-24T11:36:32.909Z,10.75
2022-11-24T11:41:41.214Z,11.25
2022-11-24T11:46:45.165Z,11.77
2022-11-24T11:52:05.459Z,10.85
2022-11-24T11:57:25.866Z,11.30
2022-11-24T12:02:53.654Z,10.32
2022-11-24T12:08:12.502Z,10.68
2022-11-24T12:13:35.550Z,9.13
2022-11-24T12:19:03.202Z,9.27
2022-11-24T12:24:30.575Z,8.75
2022-11-24T12:30:02.418Z,8.18
2022-11-24T12:35:20.445Z,7.97
2022-11-24T12:40:46.688Z,7.32
2022-11-24T12:46:17.213Z,7.82
2022-11-24T12:51:24.365Z,8.07
2022-11-24T12:56:51.093Z,8.52
2022-11-24T13:02:02.131Z,7.43
2022-11-24T13:07:19.467Z,6.30
2022-11-24T13:12:22.287Z,7.25
2022-11-24T13:17:38.254Z,7.43
2022-11-24T13:22:58.749Z,7.85
2022-11-24T13:28:03.076Z,6.30
2022-11-24T13:33:16.178Z,8.30
2022-11-24T13:38:51.087Z,8.02
2022-11-24T13:44:17.562Z,7.85
2022-11-24T13:49:20.769Z,7.32
2022-11-24T13:54:25.697Z,7.75
2022-11-24T13:59:34.693Z,10.63
2022-11-24T14:04:39.594Z,9.35
2022-11-24T14:09:51.115Z,8.35
2022-11-24T14:15:20.578Z,7.30
2022-11-24T14:20:25.489Z,7.45
2022-11-24T14:25:32.489Z,6.90
2022-11-24T14:30:34.528Z,6.38
2022-11-24T14:35:49.401Z,6.47
2022-11-24T14:40:54.138Z,6.95
2022-11-24T14:45:59.484Z,7.32
2022-11-24T14:51:15.013Z,7.20
2022-11-24T14:56:28.944Z,6.60
2022-11-24T15:01:34.130Z,6.70
2022-11-24T15:06:36.588Z,8.10
2022-11-24T15:11:38.855Z,5.55
2022-11-24T15:16:41.018Z,5.55
2022-11-24T15:21:43.054Z,6.32
2022-11-24T15:26:45.853Z,5.68
2022-11-24T15:31:52.325Z,7.97
2022-11-24T15:36:54.584Z,5.95
2022-11-24T15:41:56.716Z,6.65
2022-11-24T15:46:58.801Z,5.63
2022-11-24T15:52:01.090Z,7.10
2022-11-24T15:57:03.184Z,5.95
2022-11-24T16:02:05.212Z,7.82
2022-11-24T16:07:12.341Z,7.07
2022-11-24T16:12:14.385Z,6.65
2022-11-24T16:17:16.375Z,5.63
2022-11-24T16:22:18.579Z,6.82
2022-11-24T16:27:20.678Z,6.38
2022-11-24T16:32:22.743Z,5.97
2022-11-24T16:37:24.845Z,5.90
2022-11-24T16:42:26.981Z,5.07
2022-11-24T16:47:29.105Z,5.32
2022-11-24T16:52:31.167Z,5.35
2022-11-24T16:57:33.404Z,6.10
2022-11-24T17:02:35.672Z,5.97
2022-11-24T17:07:39.397Z,4.85
2022-11-24T17:12:41.497Z,5.93
2022-11-24T17:18:08.369Z,4.82
2022-11-24T17:23:06.696Z,4.93
2022-11-24T17:28:08.669Z,5.18
2022-11-24T17:33:10.768Z,5.80
2022-11-24T17:38:12.982Z,5.18
2022-11-24T17:43:14.965Z,4.97
2022-11-24T17:48:17.038Z,4.53
2022-11-24T17:53:19.020Z,4.60
2022-11-24T17:58:21.172Z,4.25
2022-11-24T18:03:24.166Z,5.85
2022-11-24T18:08:26.270Z,4.68
2022-11-24T18:13:55.332Z,4.18
2022-11-24T18:19:07.906Z,4.18
2022-11-24T18:24:12.512Z,3.58
2022-11-24T18:29:14.507Z,3.83
2022-11-24T18:34:16.554Z,3.92
2022-11-24T18:39:19.372Z,3.60
2022-11-24T18:44:22.687Z,4.10
2022-11-24T18:49:24.734Z,4.00
2022-11-24T18:54:28.188Z,3.33
2022-11-24T18:59:30.238Z,3.67
2022-11-24T19:04:32.236Z,3.45
2022-11-24T19:09:34.266Z,3.67
2022-11-24T19:14:36.731Z,4.38
2022-11-24T19:19:39.835Z,4.28
2022-11-24T19:24:41.907Z,3.20
2022-11-24T19:29:43.990Z,4.30
2022-11-24T19:34:46.072Z,4.25
2022-11-24T19:39:48.392Z,4.18
2022-11-24T19:44:56.200Z,4.00
2022-11-24T19:49:58.929Z,4.95
2022-11-24T19:55:02.265Z,5.18
2022-11-24T20:00:07.785Z,3.90
2022-11-24T20:05:09.856Z,4.85
2022-11-24T20:10:11.918Z,4.03
2022-11-24T20:15:15.095Z,4.70
2022-11-24T20:20:17.253Z,4.45
2022-11-24T20:25:19.375Z,3.85
2022-11-24T20:30:21.440Z,3.63
2022-11-24T20:35:23.450Z,2.65
2022-11-24T20:40:25.485Z,2.80
2022-11-24T20:45:27.591Z,2.85
2022-11-24T20:50:29.650Z,3.35
2022-11-24T20:55:33.697Z,2.88
2022-11-24T21:00:35.882Z,2.67
2022-11-24T21:05:38.056Z,2.58
2022-11-24T21:10:40.142Z,3.53
2022-11-24T21:15:42.209Z,3.50
2022-11-24T21:20:44.735Z,3.20
2022-11-24T21:25:46.794Z,2.25
2022-11-24T21:30:48.888Z,3.10
2022-11-24T21:35:50.948Z,2.08
2022-11-24T21:40:53.029Z,1.50
2022-11-24T21:45:55.391Z,2.40
2022-11-24T21:50:59.033Z,2.38
2022-11-24T21:56:03.574Z,2.08
2022-11-24T22:01:10.714Z,2.60
2022-11-24T22:06:13.482Z,2.92
2022-11-24T22:11:23.838Z,2.35
2022-11-24T22:16:26.062Z,2.13
2022-11-24T22:21:33.212Z,2.35
2022-11-24T22:26:35.896Z,2.17
2022-11-24T22:31:37.905Z,2.53
2022-11-24T22:36:39.945Z,2.20
2022-11-24T22:41:41.973Z,2.30
2022-11-24T22:46:43.948Z,1.73
2022-11-24T22:51:45.988Z,2.42
2022-11-24T22:56:48.050Z,2.33
2022-11-24T23:01:50.186Z,3.25
2022-11-24T23:06:52.369Z,2.08
2022-11-24T23:11:54.321Z,2.08
2022-11-24T23:16:56.364Z,2.78
2022-11-24T23:21:58.510Z,2.17
2022-11-24T23:27:00.477Z,2.63
2022-11-24T23:32:02.510Z,2.45
2022-11-24T23:37:04.630Z,2.58
2022-11-24T23:42:06.681Z,2.25
2022-11-24T23:47:08.719Z,2.20
2022-11-24T23:52:10.911Z,2.33
2022-11-24T23:57:12.933Z,2.38
